Sargent, Nebraska
Current Conditions -  °F | °C
As of 1:53 AM on Monday 24 Nov 2014 (Local Time) from KBBW Reporting Station
Broken Clouds Broken Clouds  
Wind Chill: 22°   Ceiling: 9000
Heat Index: 33°   Visibility: 10mi
Dew Point: 22°   Wind: 20mph
Humidity: 64%   Direction: 320°NW
Pressure: 29.63"   Gusts: 26mph
Location:  41.64°N, 99.37°W
Report Text: KBBW 240753Z AUTO 32017G23KT 10SM SCT048 BKN090 01/M06 A2963 RMK AO2 SLP043 T00061056 PWINO FZRANO $
Loading
Personal Weather Stations






























Interactive Weather Map New forecast layout! Learn more

10-Day Weather Forecast

Advertisements
Track Severe Weather on mobile